Airfield :
LOGIN :

Register | Disclaimer

   EN    FR    IT 

 










Legend :    VFR   Marginal VFR   IFR   Intensive IFR   Very Intensive IFR
Visi :
Ceiling :
>= 8 km
>= 3000ft
5 to 8 km
1000 to 3000 ft
1500m to 5 km
500 to 1000 ft
800 to 1500m
200 to 500 ft
< 800m
< 200 ft
Symbols :   Thunderstorms  Fog  Heavy snow  Heavy precipitations  Wind > 20 kt
SIGMETs :     Misc.  Thunderstorms  Icing  Turbulence  Mountain Waves  Volcanic Ashes






- Airport Elevation : 1487 ft
- IATA code : MUC


EDDM - München Franz Josef Strauss

CURRENT METAR :
  • 061820Z VRB02KT 9000 -SHRA SCT009 SCT030CB 14/13 Q1007 RESHRA TEMPO SHRA

EXPIRED METARs :
  • 061750Z 02002KT 9000 SHRA FEW025 SCT050CB 14/13 Q1007 BECMG NSW
  • 061720Z 04003KT 330V080 9999 -SHRA FEW020 SCT045CB 14/13 Q1007 RETSRA TEMPO 27008KT SHRA
  • 061650Z VRB03KT 6000 TSRA FEW015 BKN040CB 15/12 Q1007 TEMPO 33015G35KT 4000
  • 061620Z 01004KT 330V040 9999 VCTS SCT035CB BKN042 16/13 Q1006 TEMPO FM1640 33015G35KT 4000 TSRA BKN040CB
  • 061550Z 02005KT 340V070 9999 FEW035TCU BKN043 16/13 Q1006 TEMPO FM1630 33015G30KT 4000 TSRA BKN040CB

TAF TAF EDDM
Valid from the 06 at 18:00 until the 08 at 00:00 UTC


061700Z 0618/0724 13005KT 9999 BKN045
TEMPO 0618/0620 SHRA BKN015TCU
TEMPO 0700/0703 4000 -RADZ BKN012
BECMG 0704/0706 33007KT
TEMPO 0707/0714 3000 RADZ OVC008
TEMPO 0714/0716 BKN012
BECMG 0716/0718 24005KT
BECMG 0720/0722 15003KT



MET'MAP, your aeronautical weather chart ! - Copyright ORBIFLY December 2007 - Disclaimer

ORBIFLY MET'MAP TEAM :

Programming & Development : Alexandra Zaïnal
Concept & original design : Baudouin d'Aumeries
Assistance for programming : Marc-Olivier Méhu
Technical & hardware support : Manuel Goepfert

Contact : metmap@orbifly.com




SOURCES & CREDITS :

   NOAA